sensor_id;sensor_type;location;lat;lon;timestamp;P1;durP1;ratioP1;P2;durP2;ratioP2
16820;SDS011;8527;49.740;6.604;2024-03-02T00:00:51;4.60;;;1.90;;
16820;SDS011;8527;49.740;6.604;2024-03-02T00:05:50;3.53;;;1.77;;
16820;SDS011;8527;49.740;6.604;2024-03-02T00:10:55;3.03;;;1.45;;
16820;SDS011;8527;49.740;6.604;2024-03-02T00:15:58;2.55;;;1.50;;
16820;SDS011;8527;49.740;6.604;2024-03-02T00:21:00;2.53;;;1.73;;
16820;SDS011;8527;49.740;6.604;2024-03-02T00:26:03;2.33;;;1.40;;
16820;SDS011;8527;49.740;6.604;2024-03-02T00:31:03;3.50;;;1.50;;
16820;SDS011;8527;49.740;6.604;2024-03-02T00:36:12;4.25;;;1.85;;
16820;SDS011;8527;49.740;6.604;2024-03-02T00:41:21;3.13;;;1.50;;
16820;SDS011;8527;49.740;6.604;2024-03-02T00:46:21;4.37;;;1.57;;
16820;SDS011;8527;49.740;6.604;2024-03-02T00:51:35;4.63;;;2.30;;
16820;SDS011;8527;49.740;6.604;2024-03-02T00:56:43;3.60;;;1.70;;
16820;SDS011;8527;49.740;6.604;2024-03-02T01:01:45;3.53;;;1.70;;
16820;SDS011;8527;49.740;6.604;2024-03-02T01:06:46;2.15;;;1.42;;
16820;SDS011;8527;49.740;6.604;2024-03-02T01:11:54;6.07;;;1.67;;
16820;SDS011;8527;49.740;6.604;2024-03-02T01:16:53;1.73;;;1.42;;
16820;SDS011;8527;49.740;6.604;2024-03-02T01:21:52;5.68;;;1.83;;
16820;SDS011;8527;49.740;6.604;2024-03-02T01:26:50;3.33;;;1.50;;
16820;SDS011;8527;49.740;6.604;2024-03-02T01:31:54;3.35;;;1.50;;
16820;SDS011;8527;49.740;6.604;2024-03-02T01:36:52;5.78;;;1.67;;
16820;SDS011;8527;49.740;6.604;2024-03-02T01:41:51;4.20;;;1.90;;
16820;SDS011;8527;49.740;6.604;2024-03-02T01:46:50;5.95;;;1.90;;
16820;SDS011;8527;49.740;6.604;2024-03-02T01:51:51;5.53;;;2.10;;
16820;SDS011;8527;49.740;6.604;2024-03-02T01:56:50;5.30;;;1.70;;
16820;SDS011;8527;49.740;6.604;2024-03-02T02:01:52;3.92;;;1.40;;
16820;SDS011;8527;49.740;6.604;2024-03-02T02:06:53;3.22;;;1.40;;
16820;SDS011;8527;49.740;6.604;2024-03-02T02:11:52;2.80;;;1.30;;
16820;SDS011;8527;49.740;6.604;2024-03-02T02:16:53;5.07;;;1.50;;
16820;SDS011;8527;49.740;6.604;2024-03-02T02:22:02;2.42;;;1.25;;
16820;SDS011;8527;49.740;6.604;2024-03-02T02:27:04;4.88;;;1.70;;
16820;SDS011;8527;49.740;6.604;2024-03-02T02:32:03;2.80;;;1.40;;
16820;SDS011;8527;49.740;6.604;2024-03-02T02:37:05;6.53;;;1.88;;
16820;SDS011;8527;49.740;6.604;2024-03-02T02:42:03;5.03;;;1.67;;
16820;SDS011;8527;49.740;6.604;2024-03-02T02:47:02;4.53;;;1.58;;
16820;SDS011;8527;49.740;6.604;2024-03-02T02:52:00;3.05;;;1.60;;
16820;SDS011;8527;49.740;6.604;2024-03-02T02:57:01;4.35;;;1.67;;
16820;SDS011;8527;49.740;6.604;2024-03-02T03:02:00;3.53;;;1.65;;
16820;SDS011;8527;49.740;6.604;2024-03-02T03:06:59;1.77;;;1.50;;
16820;SDS011;8527;49.740;6.604;2024-03-02T03:11:57;1.52;;;1.17;;
16820;SDS011;8527;49.740;6.604;2024-03-02T03:16:59;4.35;;;1.50;;
16820;SDS011;8527;49.740;6.604;2024-03-02T03:22:00;2.08;;;1.42;;
16820;SDS011;8527;49.740;6.604;2024-03-02T03:26:58;1.67;;;1.40;;
16820;SDS011;8527;49.740;6.604;2024-03-02T03:32:00;3.88;;;1.63;;
16820;SDS011;8527;49.740;6.604;2024-03-02T03:36:58;4.88;;;1.88;;
16820;SDS011;8527;49.740;6.604;2024-03-02T03:41:57;4.57;;;1.60;;
16820;SDS011;8527;49.740;6.604;2024-03-02T03:46:55;3.58;;;1.77;;
16820;SDS011;8527;49.740;6.604;2024-03-02T03:52:00;3.15;;;2.10;;
16820;SDS011;8527;49.740;6.604;2024-03-02T03:56:59;4.20;;;1.52;;
16820;SDS011;8527;49.740;6.604;2024-03-02T04:01:57;3.85;;;1.60;;
16820;SDS011;8527;49.740;6.604;2024-03-02T04:06:56;2.25;;;1.60;;
16820;SDS011;8527;49.740;6.604;2024-03-02T04:11:57;3.50;;;1.88;;
16820;SDS011;8527;49.740;6.604;2024-03-02T04:16:55;4.35;;;2.15;;
16820;SDS011;8527;49.740;6.604;2024-03-02T04:21:54;2.55;;;1.95;;
16820;SDS011;8527;49.740;6.604;2024-03-02T04:26:52;1.88;;;1.52;;
16820;SDS011;8527;49.740;6.604;2024-03-02T04:31:54;2.58;;;1.65;;
16820;SDS011;8527;49.740;6.604;2024-03-02T04:36:52;2.85;;;1.60;;
16820;SDS011;8527;49.740;6.604;2024-03-02T04:41:56;3.80;;;1.58;;
16820;SDS011;8527;49.740;6.604;2024-03-02T04:47:02;4.22;;;1.48;;
16820;SDS011;8527;49.740;6.604;2024-03-02T04:52:02;2.67;;;1.60;;
16820;SDS011;8527;49.740;6.604;2024-03-02T04:57:06;4.03;;;1.80;;
16820;SDS011;8527;49.740;6.604;2024-03-02T05:02:08;4.30;;;2.00;;
16820;SDS011;8527;49.740;6.604;2024-03-02T05:07:13;2.20;;;1.83;;
16820;SDS011;8527;49.740;6.604;2024-03-02T05:12:15;3.45;;;1.92;;
16820;SDS011;8527;49.740;6.604;2024-03-02T05:17:45;4.10;;;2.13;;
16820;SDS011;8527;49.740;6.604;2024-03-02T05:22:44;2.63;;;1.67;;
16820;SDS011;8527;49.740;6.604;2024-03-02T05:27:43;4.32;;;1.90;;
16820;SDS011;8527;49.740;6.604;2024-03-02T05:32:48;1.88;;;1.52;;
16820;SDS011;8527;49.740;6.604;2024-03-02T05:37:48;3.17;;;1.33;;
16820;SDS011;8527;49.740;6.604;2024-03-02T05:42:47;1.67;;;0.95;;
16820;SDS011;8527;49.740;6.604;2024-03-02T05:47:49;5.15;;;1.33;;
16820;SDS011;8527;49.740;6.604;2024-03-02T05:52:48;3.88;;;1.35;;
16820;SDS011;8527;49.740;6.604;2024-03-02T05:57:47;2.55;;;0.90;;
16820;SDS011;8527;49.740;6.604;2024-03-02T06:03:00;3.42;;;1.70;;
16820;SDS011;8527;49.740;6.604;2024-03-02T06:07:58;2.88;;;1.65;;
16820;SDS011;8527;49.740;6.604;2024-03-02T06:13:00;5.03;;;1.77;;
16820;SDS011;8527;49.740;6.604;2024-03-02T06:18:04;2.03;;;1.67;;
16820;SDS011;8527;49.740;6.604;2024-03-02T06:23:06;1.17;;;1.08;;
16820;SDS011;8527;49.740;6.604;2024-03-02T06:28:07;4.28;;;1.77;;
16820;SDS011;8527;49.740;6.604;2024-03-02T06:33:08;2.25;;;1.27;;
16820;SDS011;8527;49.740;6.604;2024-03-02T06:38:07;4.53;;;1.35;;
16820;SDS011;8527;49.740;6.604;2024-03-02T06:43:05;3.42;;;1.70;;
16820;SDS011;8527;49.740;6.604;2024-03-02T06:48:12;5.63;;;2.42;;
16820;SDS011;8527;49.740;6.604;2024-03-02T06:53:14;3.53;;;1.85;;
16820;SDS011;8527;49.740;6.604;2024-03-02T06:58:14;4.47;;;2.00;;
16820;SDS011;8527;49.740;6.604;2024-03-02T07:03:16;4.70;;;2.00;;
16820;SDS011;8527;49.740;6.604;2024-03-02T07:08:14;5.05;;;2.03;;
16820;SDS011;8527;49.740;6.604;2024-03-02T07:13:15;5.63;;;1.52;;
16820;SDS011;8527;49.740;6.604;2024-03-02T07:18:18;3.15;;;2.00;;
16820;SDS011;8527;49.740;6.604;2024-03-02T07:23:16;3.40;;;1.70;;
16820;SDS011;8527;49.740;6.604;2024-03-02T07:28:15;18.55;;;6.82;;
16820;SDS011;8527;49.740;6.604;2024-03-02T07:33:14;9.48;;;2.75;;
16820;SDS011;8527;49.740;6.604;2024-03-02T07:38:19;5.28;;;1.85;;
16820;SDS011;8527;49.740;6.604;2024-03-02T07:43:18;2.60;;;1.85;;
16820;SDS011;8527;49.740;6.604;2024-03-02T07:48:17;4.60;;;2.15;;
16820;SDS011;8527;49.740;6.604;2024-03-02T07:53:21;5.80;;;2.10;;
16820;SDS011;8527;49.740;6.604;2024-03-02T07:58:19;4.45;;;2.38;;
16820;SDS011;8527;49.740;6.604;2024-03-02T08:03:18;6.10;;;2.70;;
16820;SDS011;8527;49.740;6.604;2024-03-02T08:08:19;3.72;;;2.80;;
16820;SDS011;8527;49.740;6.604;2024-03-02T08:13:23;7.90;;;3.60;;
16820;SDS011;8527;49.740;6.604;2024-03-02T08:18:22;10.23;;;3.35;;
16820;SDS011;8527;49.740;6.604;2024-03-02T08:23:26;6.43;;;3.15;;
16820;SDS011;8527;49.740;6.604;2024-03-02T08:28:25;6.55;;;2.80;;
16820;SDS011;8527;49.740;6.604;2024-03-02T08:33:27;12.13;;;3.97;;
16820;SDS011;8527;49.740;6.604;2024-03-02T08:38:28;3.42;;;2.30;;
16820;SDS011;8527;49.740;6.604;2024-03-02T08:43:29;3.90;;;2.25;;
16820;SDS011;8527;49.740;6.604;2024-03-02T08:48:28;3.83;;;2.38;;
16820;SDS011;8527;49.740;6.604;2024-03-02T08:53:31;5.75;;;2.53;;
16820;SDS011;8527;49.740;6.604;2024-03-02T08:58:31;4.50;;;2.25;;
16820;SDS011;8527;49.740;6.604;2024-03-02T09:03:30;5.05;;;2.30;;
16820;SDS011;8527;49.740;6.604;2024-03-02T09:08:38;3.85;;;1.65;;
16820;SDS011;8527;49.740;6.604;2024-03-02T09:13:36;6.15;;;2.50;;
16820;SDS011;8527;49.740;6.604;2024-03-02T09:18:35;8.75;;;2.67;;
16820;SDS011;8527;49.740;6.604;2024-03-02T09:23:34;8.60;;;2.30;;
16820;SDS011;8527;49.740;6.604;2024-03-02T09:28:42;5.13;;;2.33;;
16820;SDS011;8527;49.740;6.604;2024-03-02T09:33:44;4.35;;;2.00;;
16820;SDS011;8527;49.740;6.604;2024-03-02T09:38:45;6.53;;;2.10;;
16820;SDS011;8527;49.740;6.604;2024-03-02T09:43:44;3.28;;;1.92;;
16820;SDS011;8527;49.740;6.604;2024-03-02T09:48:46;5.32;;;1.95;;
16820;SDS011;8527;49.740;6.604;2024-03-02T09:53:47;2.85;;;1.52;;
16820;SDS011;8527;49.740;6.604;2024-03-02T09:58:49;2.95;;;1.58;;
16820;SDS011;8527;49.740;6.604;2024-03-02T10:03:48;13.30;;;2.50;;
16820;SDS011;8527;49.740;6.604;2024-03-02T10:08:50;4.15;;;1.90;;
16820;SDS011;8527;49.740;6.604;2024-03-02T10:13:50;3.53;;;1.90;;
16820;SDS011;8527;49.740;6.604;2024-03-02T10:18:51;3.30;;;2.08;;
16820;SDS011;8527;49.740;6.604;2024-03-02T10:23:52;4.03;;;2.40;;
16820;SDS011;8527;49.740;6.604;2024-03-02T10:28:52;5.07;;;2.10;;
16820;SDS011;8527;49.740;6.604;2024-03-02T10:33:56;7.70;;;1.70;;
16820;SDS011;8527;49.740;6.604;2024-03-02T10:38:59;3.80;;;1.88;;
16820;SDS011;8527;49.740;6.604;2024-03-02T10:44:00;3.45;;;1.70;;
16820;SDS011;8527;49.740;6.604;2024-03-02T10:49:01;5.03;;;1.60;;
16820;SDS011;8527;49.740;6.604;2024-03-02T10:54:03;5.60;;;1.83;;
16820;SDS011;8527;49.740;6.604;2024-03-02T11:04:15;3.67;;;1.67;;
16820;SDS011;8527;49.740;6.604;2024-03-02T11:09:23;2.47;;;1.60;;
16820;SDS011;8527;49.740;6.604;2024-03-02T11:14:31;3.38;;;2.05;;
16820;SDS011;8527;49.740;6.604;2024-03-02T11:19:34;3.10;;;2.10;;
16820;SDS011;8527;49.740;6.604;2024-03-02T11:24:36;2.85;;;2.05;;
16820;SDS011;8527;49.740;6.604;2024-03-02T11:29:43;3.95;;;2.20;;
16820;SDS011;8527;49.740;6.604;2024-03-02T11:34:45;4.80;;;2.28;;
16820;SDS011;8527;49.740;6.604;2024-03-02T11:39:48;4.05;;;2.20;;
16820;SDS011;8527;49.740;6.604;2024-03-02T11:44:47;4.93;;;2.25;;
16820;SDS011;8527;49.740;6.604;2024-03-02T11:49:48;4.70;;;2.22;;
16820;SDS011;8527;49.740;6.604;2024-03-02T11:54:50;4.82;;;2.30;;
16820;SDS011;8527;49.740;6.604;2024-03-02T11:59:54;5.85;;;2.28;;
16820;SDS011;8527;49.740;6.604;2024-03-02T12:05:02;2.28;;;1.65;;
16820;SDS011;8527;49.740;6.604;2024-03-02T12:10:05;3.20;;;1.60;;
16820;SDS011;8527;49.740;6.604;2024-03-02T12:15:04;5.82;;;1.95;;
16820;SDS011;8527;49.740;6.604;2024-03-02T12:20:06;6.47;;;2.10;;
16820;SDS011;8527;49.740;6.604;2024-03-02T12:25:08;4.35;;;1.90;;
16820;SDS011;8527;49.740;6.604;2024-03-02T12:30:07;2.08;;;1.63;;
16820;SDS011;8527;49.740;6.604;2024-03-02T12:35:06;2.03;;;1.45;;
16820;SDS011;8527;49.740;6.604;2024-03-02T12:40:10;5.38;;;1.75;;
16820;SDS011;8527;49.740;6.604;2024-03-02T12:45:09;7.65;;;1.70;;
16820;SDS011;8527;49.740;6.604;2024-03-02T12:50:09;3.25;;;1.65;;
16820;SDS011;8527;49.740;6.604;2024-03-02T12:55:10;2.85;;;1.20;;
16820;SDS011;8527;49.740;6.604;2024-03-02T13:00:12;2.05;;;1.27;;
16820;SDS011;8527;49.740;6.604;2024-03-02T13:05:14;2.05;;;1.63;;
16820;SDS011;8527;49.740;6.604;2024-03-02T13:10:15;1.85;;;1.42;;
16820;SDS011;8527;49.740;6.604;2024-03-02T13:15:13;2.42;;;1.50;;
16820;SDS011;8527;49.740;6.604;2024-03-02T13:20:13;5.28;;;1.80;;
16820;SDS011;8527;49.740;6.604;2024-03-02T13:25:30;1.88;;;1.30;;
16820;SDS011;8527;49.740;6.604;2024-03-02T13:30:29;4.60;;;1.63;;
16820;SDS011;8527;49.740;6.604;2024-03-02T13:35:31;4.57;;;1.50;;
16820;SDS011;8527;49.740;6.604;2024-03-02T13:40:32;2.80;;;1.20;;
16820;SDS011;8527;49.740;6.604;2024-03-02T13:45:31;1.92;;;1.17;;
16820;SDS011;8527;49.740;6.604;2024-03-02T13:50:30;3.17;;;1.40;;
16820;SDS011;8527;49.740;6.604;2024-03-02T13:55:28;2.90;;;1.05;;
16820;SDS011;8527;49.740;6.604;2024-03-02T14:00:29;5.28;;;1.38;;
16820;SDS011;8527;49.740;6.604;2024-03-02T14:05:31;1.60;;;1.20;;
16820;SDS011;8527;49.740;6.604;2024-03-02T14:10:31;2.03;;;1.15;;
16820;SDS011;8527;49.740;6.604;2024-03-02T14:15:33;3.53;;;1.02;;
16820;SDS011;8527;49.740;6.604;2024-03-02T14:20:33;2.90;;;1.38;;
16820;SDS011;8527;49.740;6.604;2024-03-02T14:25:35;2.50;;;1.25;;
16820;SDS011;8527;49.740;6.604;2024-03-02T14:30:39;3.63;;;3.05;;
16820;SDS011;8527;49.740;6.604;2024-03-02T14:35:40;2.65;;;1.58;;
16820;SDS011;8527;49.740;6.604;2024-03-02T14:40:39;6.13;;;2.55;;
16820;SDS011;8527;49.740;6.604;2024-03-02T14:45:42;2.10;;;1.55;;
16820;SDS011;8527;49.740;6.604;2024-03-02T14:50:44;1.77;;;1.20;;
16820;SDS011;8527;49.740;6.604;2024-03-02T14:55:46;2.67;;;1.17;;
16820;SDS011;8527;49.740;6.604;2024-03-02T15:00:47;2.03;;;1.20;;
16820;SDS011;8527;49.740;6.604;2024-03-02T15:05:45;2.55;;;1.20;;
16820;SDS011;8527;49.740;6.604;2024-03-02T15:10:46;2.63;;;1.20;;
16820;SDS011;8527;49.740;6.604;2024-03-02T15:15:48;1.65;;;1.50;;
16820;SDS011;8527;49.740;6.604;2024-03-02T15:20:52;2.70;;;0.98;;
16820;SDS011;8527;49.740;6.604;2024-03-02T15:25:51;1.38;;;0.88;;
16820;SDS011;8527;49.740;6.604;2024-03-02T15:30:55;1.95;;;1.33;;
16820;SDS011;8527;49.740;6.604;2024-03-02T15:35:57;3.47;;;1.48;;
16820;SDS011;8527;49.740;6.604;2024-03-02T15:40:56;7.90;;;4.00;;
16820;SDS011;8527;49.740;6.604;2024-03-02T15:45:57;4.13;;;3.00;;
16820;SDS011;8527;49.740;6.604;2024-03-02T15:51:05;1.90;;;1.50;;
16820;SDS011;8527;49.740;6.604;2024-03-02T15:56:03;4.45;;;1.63;;
16820;SDS011;8527;49.740;6.604;2024-03-02T16:01:05;4.53;;;1.38;;
16820;SDS011;8527;49.740;6.604;2024-03-02T16:06:04;3.83;;;2.20;;
16820;SDS011;8527;49.740;6.604;2024-03-02T16:11:02;2.15;;;1.90;;
16820;SDS011;8527;49.740;6.604;2024-03-02T16:16:01;3.25;;;1.80;;
16820;SDS011;8527;49.740;6.604;2024-03-02T16:21:03;3.78;;;1.85;;
16820;SDS011;8527;49.740;6.604;2024-03-02T16:26:06;5.53;;;1.95;;
16820;SDS011;8527;49.740;6.604;2024-03-02T16:31:05;4.20;;;2.00;;
16820;SDS011;8527;49.740;6.604;2024-03-02T16:36:07;3.33;;;1.83;;
16820;SDS011;8527;49.740;6.604;2024-03-02T16:41:08;5.45;;;1.73;;
16820;SDS011;8527;49.740;6.604;2024-03-02T16:46:06;3.70;;;2.10;;
16820;SDS011;8527;49.740;6.604;2024-03-02T16:51:10;7.35;;;2.90;;
16820;SDS011;8527;49.740;6.604;2024-03-02T16:56:09;8.93;;;2.65;;
16820;SDS011;8527;49.740;6.604;2024-03-02T17:01:19;3.85;;;2.30;;
16820;SDS011;8527;49.740;6.604;2024-03-02T17:06:20;5.53;;;3.50;;
16820;SDS011;8527;49.740;6.604;2024-03-02T17:11:22;4.38;;;2.83;;
16820;SDS011;8527;49.740;6.604;2024-03-02T17:16:20;7.15;;;3.40;;
16820;SDS011;8527;49.740;6.604;2024-03-02T17:21:24;5.72;;;4.03;;
16820;SDS011;8527;49.740;6.604;2024-03-02T17:26:22;7.97;;;4.65;;
16820;SDS011;8527;49.740;6.604;2024-03-02T17:31:29;6.53;;;3.75;;
16820;SDS011;8527;49.740;6.604;2024-03-02T17:36:30;6.53;;;3.60;;
16820;SDS011;8527;49.740;6.604;2024-03-02T17:41:29;8.45;;;2.70;;
16820;SDS011;8527;49.740;6.604;2024-03-02T17:46:28;6.35;;;3.72;;
16820;SDS011;8527;49.740;6.604;2024-03-02T17:51:26;8.98;;;5.22;;
16820;SDS011;8527;49.740;6.604;2024-03-02T17:56:27;7.40;;;4.35;;
16820;SDS011;8527;49.740;6.604;2024-03-02T18:01:26;5.97;;;3.10;;
16820;SDS011;8527;49.740;6.604;2024-03-02T18:06:28;5.10;;;3.20;;
16820;SDS011;8527;49.740;6.604;2024-03-02T18:11:32;6.15;;;3.28;;
16820;SDS011;8527;49.740;6.604;2024-03-02T18:16:30;14.40;;;6.70;;
16820;SDS011;8527;49.740;6.604;2024-03-02T18:21:29;10.70;;;5.60;;
16820;SDS011;8527;49.740;6.604;2024-03-02T18:26:27;7.68;;;3.45;;
16820;SDS011;8527;49.740;6.604;2024-03-02T18:31:30;5.95;;;4.05;;
16820;SDS011;8527;49.740;6.604;2024-03-02T18:36:29;7.50;;;4.03;;
16820;SDS011;8527;49.740;6.604;2024-03-02T18:41:27;9.00;;;3.40;;
16820;SDS011;8527;49.740;6.604;2024-03-02T18:46:26;4.80;;;2.60;;
16820;SDS011;8527;49.740;6.604;2024-03-02T18:51:27;4.88;;;2.78;;
16820;SDS011;8527;49.740;6.604;2024-03-02T18:56:25;3.65;;;2.10;;
16820;SDS011;8527;49.740;6.604;2024-03-02T19:01:24;6.32;;;2.75;;
16820;SDS011;8527;49.740;6.604;2024-03-02T19:06:22;7.10;;;3.33;;
16820;SDS011;8527;49.740;6.604;2024-03-02T19:11:26;6.57;;;3.35;;
16820;SDS011;8527;49.740;6.604;2024-03-02T19:16:26;12.13;;;4.00;;
16820;SDS011;8527;49.740;6.604;2024-03-02T19:21:25;14.43;;;5.00;;
16820;SDS011;8527;49.740;6.604;2024-03-02T19:26:27;12.90;;;3.78;;
16820;SDS011;8527;49.740;6.604;2024-03-02T19:31:33;13.05;;;4.95;;
16820;SDS011;8527;49.740;6.604;2024-03-02T19:36:34;20.63;;;5.95;;
16820;SDS011;8527;49.740;6.604;2024-03-02T19:41:33;13.70;;;4.78;;
16820;SDS011;8527;49.740;6.604;2024-03-02T19:46:39;10.63;;;4.00;;
16820;SDS011;8527;49.740;6.604;2024-03-02T19:51:45;15.05;;;5.82;;
16820;SDS011;8527;49.740;6.604;2024-03-02T19:56:44;9.88;;;3.70;;
16820;SDS011;8527;49.740;6.604;2024-03-02T20:01:42;9.02;;;3.60;;
16820;SDS011;8527;49.740;6.604;2024-03-02T20:06:41;7.10;;;3.35;;
16820;SDS011;8527;49.740;6.604;2024-03-02T20:11:45;8.13;;;4.30;;
16820;SDS011;8527;49.740;6.604;2024-03-02T20:16:44;7.55;;;3.47;;
16820;SDS011;8527;49.740;6.604;2024-03-02T20:21:42;5.15;;;2.55;;
16820;SDS011;8527;49.740;6.604;2024-03-02T20:26:44;6.45;;;2.45;;
16820;SDS011;8527;49.740;6.604;2024-03-02T20:31:42;3.53;;;2.10;;
16820;SDS011;8527;49.740;6.604;2024-03-02T20:36:49;7.85;;;3.05;;
16820;SDS011;8527;49.740;6.604;2024-03-02T20:41:51;12.63;;;3.67;;
16820;SDS011;8527;49.740;6.604;2024-03-02T20:46:52;8.82;;;4.30;;
16820;SDS011;8527;49.740;6.604;2024-03-02T20:51:51;6.97;;;3.25;;
16820;SDS011;8527;49.740;6.604;2024-03-02T20:56:52;4.30;;;2.50;;
16820;SDS011;8527;49.740;6.604;2024-03-02T21:01:54;6.93;;;2.90;;
16820;SDS011;8527;49.740;6.604;2024-03-02T21:06:56;6.05;;;3.10;;
16820;SDS011;8527;49.740;6.604;2024-03-02T21:12:03;5.03;;;2.80;;
16820;SDS011;8527;49.740;6.604;2024-03-02T21:17:03;7.10;;;2.67;;
16820;SDS011;8527;49.740;6.604;2024-03-02T21:22:03;3.75;;;1.90;;
16820;SDS011;8527;49.740;6.604;2024-03-02T21:27:06;3.30;;;2.30;;
16820;SDS011;8527;49.740;6.604;2024-03-02T21:32:08;3.88;;;3.10;;
16820;SDS011;8527;49.740;6.604;2024-03-02T21:37:06;6.10;;;2.67;;
16820;SDS011;8527;49.740;6.604;2024-03-02T21:42:07;6.25;;;2.80;;
16820;SDS011;8527;49.740;6.604;2024-03-02T21:47:06;3.85;;;2.30;;
16820;SDS011;8527;49.740;6.604;2024-03-02T21:52:05;8.20;;;3.45;;
16820;SDS011;8527;49.740;6.604;2024-03-02T21:57:04;4.70;;;2.40;;
16820;SDS011;8527;49.740;6.604;2024-03-02T22:02:09;3.20;;;2.13;;
16820;SDS011;8527;49.740;6.604;2024-03-02T22:07:10;5.60;;;2.58;;
16820;SDS011;8527;49.740;6.604;2024-03-02T22:12:09;2.92;;;2.50;;
16820;SDS011;8527;49.740;6.604;2024-03-02T22:17:11;6.82;;;2.78;;
16820;SDS011;8527;49.740;6.604;2024-03-02T22:22:09;3.50;;;2.20;;
16820;SDS011;8527;49.740;6.604;2024-03-02T22:27:08;4.13;;;2.65;;
16820;SDS011;8527;49.740;6.604;2024-03-02T22:32:06;3.03;;;2.67;;
16820;SDS011;8527;49.740;6.604;2024-03-02T22:37:08;6.47;;;2.80;;
16820;SDS011;8527;49.740;6.604;2024-03-02T22:42:06;5.25;;;2.67;;
16820;SDS011;8527;49.740;6.604;2024-03-02T22:47:04;3.88;;;2.80;;
16820;SDS011;8527;49.740;6.604;2024-03-02T22:52:09;4.25;;;2.67;;
16820;SDS011;8527;49.740;6.604;2024-03-02T22:57:07;7.20;;;2.45;;
16820;SDS011;8527;49.740;6.604;2024-03-02T23:02:11;5.50;;;2.47;;
16820;SDS011;8527;49.740;6.604;2024-03-02T23:07:17;7.78;;;2.60;;
16820;SDS011;8527;49.740;6.604;2024-03-02T23:12:18;3.30;;;2.10;;
16820;SDS011;8527;49.740;6.604;2024-03-02T23:17:16;4.80;;;2.10;;
16820;SDS011;8527;49.740;6.604;2024-03-02T23:22:21;3.28;;;2.47;;
16820;SDS011;8527;49.740;6.604;2024-03-02T23:27:19;4.03;;;2.20;;
16820;SDS011;8527;49.740;6.604;2024-03-02T23:32:21;2.38;;;2.15;;
16820;SDS011;8527;49.740;6.604;2024-03-02T23:37:26;6.32;;;2.53;;
16820;SDS011;8527;49.740;6.604;2024-03-02T23:42:27;5.03;;;2.20;;
16820;SDS011;8527;49.740;6.604;2024-03-02T23:47:26;2.75;;;1.98;;
16820;SDS011;8527;49.740;6.604;2024-03-02T23:52:27;6.40;;;2.33;;
16820;SDS011;8527;49.740;6.604;2024-03-02T23:57:29;4.20;;;2.58;;
